Time;durP1;ratioP1;P1;durP2;ratioP2;P2;SDS_P1;SDS_P2;PMS_P1;PMS_P2;Temp;Humidity;BMP_temperature;BMP_pressure;BME280_temperature;BME280_humidity;BME280_pressure;Samples;Min_cycle;Max_cycle;Signal;HPM_P1;HPM_P2
2021/12/22 00:02:15;;;;;;;16.75;11.27;;;-2.90;73.70;;;;;;5040482;28;46500;-70
2021/12/22 00:04:46;;;;;;;21.03;11.77;;;-3.00;73.70;;;;;;5040476;28;46333;-70
2021/12/22 00:07:12;;;;;;;21.75;11.85;;;-3.10;73.90;;;;;;5040478;28;46073;-71
2021/12/22 00:09:38;;;;;;;19.52;11.30;;;-3.10;73.90;;;;;;5039830;28;46492;-67
2021/12/22 00:12:04;;;;;;;24.90;12.33;;;-3.10;73.70;;;;;;5040178;28;46610;-69
2021/12/22 00:14:29;;;;;;;25.20;13.10;;;-3.10;73.60;;;;;;5040494;28;46076;-70
2021/12/22 00:16:55;;;;;;;26.63;13.33;;;-3.20;73.60;;;;;;5039954;28;46471;-70
2021/12/22 00:19:21;;;;;;;23.30;13.10;;;-3.20;73.60;;;;;;5040918;28;46437;-70
2021/12/22 00:21:46;;;;;;;22.20;12.43;;;-3.20;73.50;;;;;;5040720;28;46786;-70
2021/12/22 00:24:12;;;;;;;23.63;13.50;;;-3.20;73.50;;;;;;5040656;28;45990;-68
2021/12/22 00:26:38;;;;;;;28.60;14.30;;;-3.20;73.50;;;;;;5040701;28;46459;-68
2021/12/22 00:29:04;;;;;;;26.80;14.67;;;-3.20;74.70;;;;;;5041014;28;46410;-67
2021/12/22 00:31:31;;;;;;;28.55;14.77;;;-3.20;73.50;;;;;;5040312;28;46280;-70
2021/12/22 00:33:57;;;;;;;28.33;14.05;;;-3.20;73.50;;;;;;5039720;28;48191;-70
2021/12/22 00:36:24;;;;;;;24.38;13.35;;;-3.20;73.70;;;;;;5041146;28;46702;-70
2021/12/22 00:38:51;;;;;;;29.55;14.07;;;-3.30;73.60;;;;;;5040054;28;46491;-68
2021/12/22 00:41:20;;;;;;;24.20;13.75;;;-3.30;73.80;;;;;;5041110;28;45964;-70
2021/12/22 00:43:45;;;;;;;28.63;13.55;;;-3.30;73.90;;;;;;5040782;28;46391;-69
2021/12/22 00:46:13;;;;;;;30.30;14.17;;;-3.30;74.00;;;;;;5040680;28;46439;-70
2021/12/22 00:48:39;;;;;;;28.38;14.10;;;-3.40;73.80;;;;;;5055934;28;46479;-69
2021/12/22 00:51:04;;;;;;;29.48;13.60;;;-3.40;73.90;;;;;;5038983;28;46396;-69
2021/12/22 00:53:30;;;;;;;27.67;12.67;;;-3.50;73.80;;;;;;5038907;28;46585;-69
2021/12/22 00:55:56;;;;;;;22.10;11.20;;;-3.60;73.80;;;;;;5039334;28;46394;-67
2021/12/22 00:58:22;;;;;;;25.50;13.10;;;-3.60;73.90;;;;;;5039715;28;46083;-68
2021/12/22 01:00:49;;;;;;;21.92;11.45;;;-3.70;74.00;;;;;;5040375;28;46656;-69
2021/12/22 01:03:16;;;;;;;22.30;12.57;;;-3.80;74.10;;;;;;5037787;28;47267;-68
2021/12/22 01:05:42;;;;;;;28.33;13.38;;;-3.80;74.10;;;;;;5040094;28;46408;-68
2021/12/22 01:08:08;;;;;;;24.87;12.37;;;-3.80;74.10;;;;;;5040307;28;46394;-69
2021/12/22 01:10:34;;;;;;;25.77;12.33;;;-3.80;73.90;;;;;;5040897;28;46460;-68
2021/12/22 01:13:01;;;;;;;24.87;11.77;;;-3.70;73.80;;;;;;5040142;28;46492;-68
2021/12/22 01:15:28;;;;;;;26.83;13.15;;;-3.70;73.70;;;;;;5056306;28;46153;-67
2021/12/22 01:18:05;;;;;;;27.25;12.48;;;-3.60;73.60;;;;;;5042377;28;46384;-68
2021/12/22 01:20:49;;;;;;;25.60;12.82;;;-3.60;73.60;;;;;;5040897;28;46452;-67
2021/12/22 01:23:15;;;;;;;33.80;14.02;;;-3.70;73.50;;;;;;5040672;28;46386;-68
2021/12/22 01:25:43;;;;;;;27.80;14.40;;;-3.70;73.60;;;;;;5040804;28;46410;-68
2021/12/22 01:28:10;;;;;;;32.85;14.00;;;-3.80;73.50;;;;;;5039950;28;46444;-68
2021/12/22 01:30:42;;;;;;;29.13;13.77;;;-3.80;73.70;;;;;;5040602;28;46534;-69
2021/12/22 01:33:08;;;;;;;36.80;14.27;;;-3.90;73.70;;;;;;5038819;28;46663;-68
2021/12/22 01:35:37;;;;;;;24.95;14.13;;;-3.90;73.80;;;;;;5040639;28;46690;-70
2021/12/22 01:38:07;;;;;;;23.02;12.85;;;-3.90;73.80;;;;;;5040418;28;46326;-69
2021/12/22 01:40:35;;;;;;;23.38;12.57;;;-4.00;73.80;;;;;;5039639;28;46219;-69
2021/12/22 01:43:02;;;;;;;29.08;13.90;;;-4.10;73.90;;;;;;5039942;28;46947;-68
2021/12/22 01:46:08;;;;;;;24.90;13.00;;;-4.10;73.80;;;;;;5039870;28;45997;-69
2021/12/22 01:49:11;;;;;;;22.75;12.10;;;-4.10;73.90;;;;;;5039753;28;46292;-68
2021/12/22 01:52:00;;;;;;;25.48;11.50;;;-4.20;73.80;;;;;;5039029;28;46567;-68
2021/12/22 01:54:36;;;;;;;28.33;12.02;;;-4.20;73.80;;;;;;5040692;28;47066;-69
2021/12/22 01:57:08;;;;;;;20.90;10.55;;;-4.30;73.80;;;;;;5040211;28;46371;-69
2021/12/22 01:59:34;;;;;;;22.20;11.70;;;-4.30;74.20;;;;;;5038449;28;46547;-69
2021/12/22 02:02:00;;;;;;;23.50;11.33;;;-4.30;73.90;;;;;;5040011;28;46468;-69
2021/12/22 02:04:28;;;;;;;19.85;10.70;;;-4.40;73.90;;;;;;5040323;28;46410;-68
2021/12/22 02:06:53;;;;;;;23.23;11.75;;;-4.40;75.10;;;;;;5038375;28;46373;-69
2021/12/22 02:12:06;;;;;;;20.05;10.80;;;-4.50;73.90;;;;;;5039528;28;46437;-67
2021/12/22 02:14:32;;;;;;;19.90;10.18;;;-4.50;74.00;;;;;;5038977;28;47017;-67
2021/12/22 02:16:58;;;;;;;19.20;10.33;;;-4.60;73.90;;;;;;5039464;28;46456;-68
2021/12/22 02:19:23;;;;;;;18.50;11.33;;;-4.60;74.00;;;;;;5040258;28;46360;-68
2021/12/22 02:21:54;;;;;;;19.40;10.37;;;-4.70;74.00;;;;;;5038963;28;46576;-68
2021/12/22 02:24:20;;;;;;;18.70;10.10;;;-4.70;74.00;;;;;;5039067;28;46640;-68
2021/12/22 02:26:51;;;;;;;20.37;10.80;;;-4.70;74.00;;;;;;5039238;28;45829;-68
2021/12/22 02:29:19;;;;;;;20.67;10.85;;;-4.70;74.00;;;;;;5039609;28;45765;-68
2021/12/22 02:32:02;;;;;;;20.52;11.93;;;-4.70;74.10;;;;;;5038553;28;46479;-68
2021/12/22 02:34:28;;;;;;;20.40;11.30;;;-4.80;73.80;;;;;;5039953;28;46461;-68
2021/12/22 02:36:59;;;;;;;20.38;10.52;;;-4.70;74.00;;;;;;5038742;28;46431;-68
2021/12/22 02:39:25;;;;;;;22.48;12.30;;;-4.80;73.80;;;;;;5040139;28;46538;-69
2021/12/22 02:41:51;;;;;;;19.20;10.85;;;-4.80;73.80;;;;;;5038972;28;46393;-68
2021/12/22 02:44:16;;;;;;;19.70;10.87;;;-4.80;73.80;;;;;;5039521;28;46654;-69
2021/12/22 02:46:44;;;;;;;19.87;11.57;;;-4.80;73.80;;;;;;5040456;28;46560;-66
2021/12/22 02:49:10;;;;;;;16.90;10.40;;;-4.90;73.70;;;;;;5039467;28;46502;-66
2021/12/22 02:51:38;;;;;;;17.93;11.13;;;-4.90;73.80;;;;;;5039772;28;45882;-67
2021/12/22 02:54:12;;;;;;;23.48;11.50;;;-4.90;73.70;;;;;;5039529;28;46402;-67
2021/12/22 03:04:43;;;;;;;18.85;9.75;;;-4.90;73.60;;;;;;5036299;28;46351;-68
2021/12/22 03:07:14;;;;;;;20.38;10.40;;;-4.90;73.50;;;;;;5040123;28;46334;-67
2021/12/22 03:09:39;;;;;;;22.73;11.38;;;-5.00;73.50;;;;;;5040823;28;46523;-67
2021/12/22 03:12:09;;;;;;;22.93;11.37;;;-5.00;73.80;;;;;;5054697;28;46415;-67
2021/12/22 03:14:35;;;;;;;22.30;10.75;;;-5.00;73.50;;;;;;5039859;28;46383;-68
2021/12/22 03:17:00;;;;;;;21.23;10.40;;;-4.90;73.50;;;;;;5038578;28;46418;-68
2021/12/22 03:19:32;;;;;;;19.73;10.50;;;-5.00;73.50;;;;;;5039997;28;46467;-67
2021/12/22 03:22:04;;;;;;;19.38;10.75;;;-5.10;73.70;;;;;;5039320;28;46382;-68
2021/12/22 03:24:32;;;;;;;20.92;10.75;;;-5.10;73.80;;;;;;5040251;28;46468;-67
2021/12/22 03:27:04;;;;;;;18.48;10.27;;;-5.00;73.90;;;;;;5039588;28;46949;-66
2021/12/22 03:29:34;;;;;;;24.45;8.85;;;-5.10;73.80;;;;;;5039023;28;46408;-67
2021/12/22 03:32:01;;;;;;;18.30;10.35;;;-5.10;73.80;;;;;;5038407;28;46369;-67
2021/12/22 03:34:26;;;;;;;17.17;10.27;;;-5.20;73.60;;;;;;5039370;28;46396;-67
2021/12/22 03:36:52;;;;;;;23.60;10.50;;;-5.20;73.60;;;;;;5039819;28;46515;-68
2021/12/22 03:39:18;;;;;;;18.43;9.70;;;-5.20;73.80;;;;;;5040221;28;46666;-65
2021/12/22 03:41:46;;;;;;;19.90;10.07;;;-5.20;73.70;;;;;;5038312;28;45899;-67
2021/12/22 03:44:11;;;;;;;16.02;10.20;;;-5.30;73.60;;;;;;5039182;28;46442;-66
2021/12/22 03:46:38;;;;;;;18.77;9.60;;;-5.30;73.70;;;;;;5039818;28;46345;-67
2021/12/22 03:49:09;;;;;;;19.15;9.95;;;-5.30;73.70;;;;;;5040065;28;46382;-67
2021/12/22 03:51:36;;;;;;;14.95;8.88;;;-5.30;73.60;;;;;;5039427;28;46497;-68
2021/12/22 03:54:08;;;;;;;20.58;10.00;;;-5.30;73.60;;;;;;5039568;28;46460;-67
2021/12/22 03:56:34;;;;;;;16.67;9.63;;;-5.30;73.50;;;;;;5038612;28;46690;-67
2021/12/22 03:58:59;;;;;;;18.55;10.07;;;-5.40;73.50;;;;;;5039095;28;46538;-67
2021/12/22 04:01:25;;;;;;;15.10;8.50;;;-5.40;73.60;;;;;;5039648;28;46476;-67
2021/12/22 04:03:55;;;;;;;18.63;9.47;;;-5.40;73.50;;;;;;5039393;28;45945;-67
2021/12/22 04:06:20;;;;;;;20.02;10.57;;;-5.40;73.50;;;;;;5039099;28;46408;-67
2021/12/22 04:08:46;;;;;;;21.00;10.80;;;-5.40;73.50;;;;;;5040421;28;46496;-67
2021/12/22 04:11:12;;;;;;;15.20;8.90;;;-5.40;73.50;;;;;;5040496;28;46772;-67
2021/12/22 04:13:40;;;;;;;17.17;9.00;;;-5.40;73.50;;;;;;5039839;28;46383;-67
2021/12/22 04:16:05;;;;;;;17.83;9.50;;;-5.40;73.50;;;;;;5039371;28;45973;-68
2021/12/22 04:18:31;;;;;;;17.00;9.43;;;-5.50;73.50;;;;;;5039328;28;45886;-67
2021/12/22 04:20:57;;;;;;;20.67;10.50;;;-5.50;73.50;;;;;;5054471;28;46520;-67
2021/12/22 04:23:22;;;;;;;21.40;9.70;;;-5.50;73.40;;;;;;5038930;28;46404;-67
2021/12/22 04:25:50;;;;;;;17.17;9.60;;;-5.50;73.50;;;;;;5038975;28;46332;-67
2021/12/22 04:28:16;;;;;;;18.73;9.75;;;-5.50;73.40;;;;;;5038298;28;46402;-67
2021/12/22 04:30:46;;;;;;;14.57;9.40;;;-5.50;73.50;;;;;;5039752;28;46436;-66
2021/12/22 04:33:12;;;;;;;19.00;10.07;;;-5.50;73.50;;;;;;5040959;28;46193;-66
2021/12/22 04:35:37;;;;;;;20.38;10.82;;;-5.50;73.40;;;;;;5041668;28;46460;-68
2021/12/22 04:38:04;;;;;;;20.60;10.50;;;-5.50;73.40;;;;;;5042865;28;46325;-67
2021/12/22 04:40:30;;;;;;;17.42;9.57;;;-5.50;74.50;;;;;;5042214;28;46734;-67
2021/12/22 04:42:55;;;;;;;17.57;10.40;;;-5.60;73.20;;;;;;5041800;28;46398;-67
2021/12/22 04:45:21;;;;;;;21.40;9.40;;;-5.60;73.20;;;;;;5042277;28;46639;-67
2021/12/22 04:47:48;;;;;;;26.80;10.60;;;-5.60;73.20;;;;;;5042658;28;46374;-67
2021/12/22 04:50:16;;;;;;;20.40;10.88;;;-5.60;73.40;;;;;;5043451;28;46644;-68
2021/12/22 04:55:24;;;;;;;23.17;11.75;;;-5.70;73.30;;;;;;5039293;28;46428;-67
2021/12/22 04:57:50;;;;;;;20.33;10.50;;;-5.70;73.30;;;;;;5042531;28;46456;-67
2021/12/22 05:00:17;;;;;;;22.33;10.97;;;-5.70;73.30;;;;;;5043127;28;46354;-68
2021/12/22 05:02:42;;;;;;;19.88;11.27;;;-5.60;73.40;;;;;;5041469;28;46436;-67
2021/12/22 05:05:08;;;;;;;18.40;10.00;;;-5.70;73.20;;;;;;5042560;28;46449;-67
2021/12/22 05:07:34;;;;;;;22.90;10.85;;;-5.70;73.30;;;;;;5042307;28;45742;-68
2021/12/22 05:09:59;;;;;;;22.03;11.43;;;-5.70;73.20;;;;;;5043072;28;46341;-68
2021/12/22 05:12:27;;;;;;;25.88;15.77;;;-5.70;73.10;;;;;;5041819;28;46207;-67
2021/12/22 05:14:53;;;;;;;23.85;14.02;;;-5.70;73.20;;;;;;5042854;28;45931;-68
2021/12/22 05:20:07;;;;;;;20.98;11.38;;;-5.70;73.50;;;;;;5033722;28;46506;-67
2021/12/22 05:22:33;;;;;;;22.85;12.45;;;-5.70;73.50;;;;;;5041319;28;46497;-67
2021/12/22 05:24:59;;;;;;;26.63;11.40;;;-5.70;73.40;;;;;;5041701;28;46300;-67
2021/12/22 05:27:25;;;;;;;22.55;11.98;;;-5.70;73.40;;;;;;5042067;28;46423;-67
2021/12/22 05:29:51;;;;;;;21.38;11.95;;;-5.70;73.40;;;;;;5042804;28;46426;-67
2021/12/22 05:32:17;;;;;;;23.97;11.50;;;-5.70;73.40;;;;;;5041357;28;47050;-66
2021/12/22 05:34:42;;;;;;;18.60;10.60;;;-5.80;73.30;;;;;;5041866;28;46250;-67
2021/12/22 05:37:08;;;;;;;21.70;11.57;;;-5.70;74.60;;;;;;5042215;28;46679;-67
2021/12/22 05:39:34;;;;;;;24.60;12.50;;;-5.70;73.30;;;;;;5043019;28;46446;-67
2021/12/22 05:42:01;;;;;;;24.50;10.90;;;-5.70;73.30;;;;;;5041242;28;46428;-67
2021/12/22 05:44:27;;;;;;;33.08;13.15;;;-5.70;73.20;;;;;;5040842;28;46670;-67
2021/12/22 05:46:53;;;;;;;23.33;12.57;;;-5.70;73.20;;;;;;5041878;28;45822;-67
2021/12/22 05:49:19;;;;;;;23.57;13.23;;;-5.80;73.10;;;;;;5041939;28;46391;-67
2021/12/22 05:51:45;;;;;;;28.27;13.38;;;-5.80;73.20;;;;;;5041585;28;46384;-66
2021/12/22 05:54:11;;;;;;;32.20;14.80;;;-5.90;73.10;;;;;;5042212;28;45766;-66
2021/12/22 05:56:37;;;;;;;28.80;13.77;;;-5.80;73.20;;;;;;5041274;28;46412;-66
2021/12/22 05:59:03;;;;;;;34.87;15.23;;;-5.80;73.20;;;;;;5042011;28;46314;-66
2021/12/22 06:01:31;;;;;;;31.23;14.40;;;-5.80;73.10;;;;;;5041015;28;46515;-67
2021/12/22 06:03:59;;;;;;;41.22;16.17;;;-5.80;73.20;;;;;;5042271;28;46367;-67
2021/12/22 06:06:26;;;;;;;40.13;13.80;;;-5.80;73.00;;;;;;5041444;28;46404;-66
2021/12/22 06:08:52;;;;;;;43.97;15.82;;;-5.90;72.90;;;;;;5042197;28;46417;-67
2021/12/22 06:11:17;;;;;;;36.30;14.00;;;-5.90;72.90;;;;;;5041082;28;47861;-67
2021/12/22 06:13:43;;;;;;;38.50;15.67;;;-5.90;72.90;;;;;;5041625;28;46436;-67
2021/12/22 06:16:09;;;;;;;33.73;13.70;;;-5.90;72.90;;;;;;5042093;28;46093;-66
2021/12/22 06:18:41;;;;;;;28.55;13.18;;;-5.90;72.90;;;;;;5040877;28;46429;-66
2021/12/22 06:21:07;;;;;;;31.52;14.60;;;-5.90;72.90;;;;;;5041217;28;46506;-67
2021/12/22 06:23:32;;;;;;;42.23;15.57;;;-6.00;73.00;;;;;;5041256;28;46525;-66
2021/12/22 06:25:58;;;;;;;28.67;13.63;;;-6.00;73.00;;;;;;5041498;28;46532;-67
2021/12/22 06:28:26;;;;;;;25.33;12.17;;;-6.00;72.90;;;;;;5041517;28;45897;-67
2021/12/22 06:30:51;;;;;;;27.17;12.80;;;-6.00;72.90;;;;;;5040591;28;47015;-67
2021/12/22 06:33:17;;;;;;;23.53;11.03;;;-6.00;72.80;;;;;;5040304;28;46310;-66
2021/12/22 06:35:45;;;;;;;23.17;11.27;;;-6.10;72.80;;;;;;5039376;28;45960;-66
2021/12/22 06:38:10;;;;;;;26.85;11.57;;;-6.10;72.90;;;;;;5039430;28;46372;-66
2021/12/22 06:40:36;;;;;;;25.50;11.83;;;-6.10;72.90;;;;;;5040390;28;46354;-67
2021/12/22 06:43:01;;;;;;;42.03;13.23;;;-6.10;72.90;;;;;;5039738;28;46075;-68
2021/12/22 06:45:30;;;;;;;23.73;10.60;;;-6.00;72.90;;;;;;5038796;28;46387;-67
2021/12/22 06:47:55;;;;;;;22.20;10.00;;;-6.10;72.70;;;;;;5039989;28;46656;-67
2021/12/22 06:50:21;;;;;;;23.40;9.87;;;-6.10;72.70;;;;;;5041672;28;46151;-69
2021/12/22 06:52:47;;;;;;;22.07;12.13;;;-6.10;72.80;;;;;;5039926;28;46370;-69
2021/12/22 06:55:12;;;;;;;23.27;12.17;;;-6.10;72.90;;;;;;5055498;28;46502;-67
2021/12/22 06:57:38;;;;;;;21.37;10.57;;;-6.10;72.90;;;;;;5038280;28;46413;-67
2021/12/22 07:00:06;;;;;;;23.60;10.27;;;-6.10;72.90;;;;;;5039665;28;46968;-69
2021/12/22 07:02:36;;;;;;;25.25;12.73;;;-6.10;72.80;;;;;;5039290;28;46418;-66
2021/12/22 07:05:04;;;;;;;23.48;11.05;;;-6.10;72.80;;;;;;5040307;28;46459;-68
2021/12/22 07:07:30;;;;;;;23.60;11.65;;;-6.00;72.80;;;;;;5040091;28;46492;-69
2021/12/22 07:09:56;;;;;;;20.60;10.80;;;-6.00;72.60;;;;;;5040146;28;46460;-69
2021/12/22 07:12:22;;;;;;;24.17;10.23;;;-6.00;72.70;;;;;;5038481;28;46405;-67
2021/12/22 07:14:47;;;;;;;24.13;10.80;;;-6.00;72.50;;;;;;5040324;28;46435;-67
2021/12/22 07:17:13;;;;;;;21.60;9.67;;;-6.00;72.60;;;;;;5039256;28;46420;-66
2021/12/22 07:19:38;;;;;;;21.70;11.10;;;-6.00;72.40;;;;;;5039847;28;46468;-68
2021/12/22 07:22:04;;;;;;;21.23;10.37;;;-6.00;72.40;;;;;;5039541;28;46643;-68
2021/12/22 07:24:30;;;;;;;18.23;10.20;;;-6.00;72.50;;;;;;5040686;28;46442;-68
2021/12/22 07:26:55;;;;;;;21.20;10.77;;;-5.90;72.60;;;;;;5039632;28;45985;-69
2021/12/22 07:29:21;;;;;;;26.80;10.77;;;-5.90;72.60;;;;;;5039116;28;46497;-68
2021/12/22 07:31:47;;;;;;;21.43;11.73;;;-5.90;72.50;;;;;;5039872;28;46414;-68
2021/12/22 07:34:33;;;;;;;26.17;16.00;;;-5.90;72.50;;;;;;5039478;28;46446;-68
2021/12/22 07:37:21;;;;;;;28.45;12.95;;;-5.90;72.50;;;;;;5040293;28;46461;-68
2021/12/22 07:39:47;;;;;;;29.98;15.02;;;-5.90;73.00;;;;;;5040604;28;46376;-68
2021/12/22 07:42:13;;;;;;;28.63;12.70;;;-5.80;73.00;;;;;;5039749;28;46295;-68
2021/12/22 07:44:39;;;;;;;17.50;9.57;;;-5.80;74.00;;;;;;5040283;28;46717;-69
2021/12/22 07:47:05;;;;;;;24.58;10.30;;;-5.70;72.90;;;;;;5041794;28;46355;-68
2021/12/22 07:49:31;;;;;;;17.57;9.30;;;-5.60;72.90;;;;;;5034605;28;46501;-68
2021/12/22 07:51:56;;;;;;;19.30;9.90;;;-5.60;72.80;;;;;;5035335;28;46469;-68
2021/12/22 07:54:22;;;;;;;24.73;10.53;;;-5.50;72.80;;;;;;5040245;28;46491;-66
2021/12/22 07:56:48;;;;;;;21.03;9.53;;;-5.50;72.80;;;;;;5038418;28;46498;-66
2021/12/22 07:59:13;;;;;;;17.23;8.93;;;-5.50;72.70;;;;;;5036831;28;46385;-65
2021/12/22 08:01:39;;;;;;;21.17;10.57;;;-5.40;72.70;;;;;;5036604;28;46610;-66
2021/12/22 08:04:07;;;;;;;26.10;13.07;;;-5.40;72.60;;;;;;5038513;28;46476;-67
2021/12/22 08:06:32;;;;;;;20.33;11.57;;;-5.30;72.50;;;;;;5038203;28;46447;-67
2021/12/22 08:08:58;;;;;;;20.57;11.57;;;-5.10;72.30;;;;;;5040516;28;47494;-67
2021/12/22 08:11:24;;;;;;;24.50;11.60;;;-4.90;72.30;;;;;;5041707;28;46544;-68
2021/12/22 08:13:49;;;;;;;26.77;11.80;;;-4.80;72.30;;;;;;5039976;28;46413;-66
2021/12/22 08:16:15;;;;;;;23.90;12.00;;;-4.80;72.30;;;;;;5040236;28;46479;-68
2021/12/22 08:18:40;;;;;;;21.60;11.80;;;-4.70;72.40;;;;;;5039639;28;46476;-68
2021/12/22 08:21:08;;;;;;;29.67;13.40;;;-4.60;72.60;;;;;;5041166;28;46491;-67
2021/12/22 08:23:34;;;;;;;20.65;11.10;;;-4.50;72.50;;;;;;5041713;28;46413;-66
2021/12/22 08:25:59;;;;;;;23.93;12.13;;;-4.40;72.60;;;;;;5043080;28;46356;-66
2021/12/22 08:28:25;;;;;;;23.47;13.10;;;-4.40;72.70;;;;;;5042458;28;47150;-68
2021/12/22 08:30:51;;;;;;;24.87;12.93;;;-4.20;72.80;;;;;;5043727;28;45806;-67
2021/12/22 08:33:25;;;;;;;26.97;10.80;;;-4.00;72.90;;;;;;5042586;28;46825;-66
2021/12/22 08:38:51;;;;;;;24.08;13.05;;;-3.40;72.00;;;;;;5043114;28;46391;-66
2021/12/22 08:41:25;;;;;;;22.02;12.75;;;-3.20;71.50;;;;;;5043807;28;46578;-68
2021/12/22 08:43:54;;;;;;;20.70;11.07;;;-3.10;71.20;;;;;;5044849;28;46029;-67
2021/12/22 08:46:20;;;;;;;25.48;14.73;;;-2.90;71.10;;;;;;5058131;28;46636;-67
2021/12/22 08:48:46;;;;;;;27.75;16.02;;;-2.70;70.80;;;;;;5042504;28;48749;-65
2021/12/22 08:51:12;;;;;;;26.77;14.33;;;-2.50;70.50;;;;;;5042443;28;46372;-66
2021/12/22 08:53:38;;;;;;;27.10;15.80;;;-2.40;70.30;;;;;;5041562;28;46306;-67
2021/12/22 08:56:04;;;;;;;28.13;13.77;;;-2.20;70.20;;;;;;5043050;28;46389;-67
2021/12/22 08:58:29;;;;;;;25.00;13.07;;;-2.10;69.90;;;;;;5042126;28;46406;-66
2021/12/22 09:00:55;;;;;;;26.60;13.40;;;-2.10;69.80;;;;;;5042312;28;46475;-66
2021/12/22 09:03:20;;;;;;;24.60;14.20;;;-2.20;71.10;;;;;;5039928;28;46329;-66
2021/12/22 09:05:46;;;;;;;26.30;13.80;;;-2.10;70.10;;;;;;5042323;28;46618;-66
2021/12/22 09:08:12;;;;;;;26.63;13.43;;;-2.00;69.90;;;;;;5042581;28;46340;-67
2021/12/22 09:10:37;;;;;;;26.00;14.50;;;-1.90;70.00;;;;;;5041851;28;46476;-66
2021/12/22 09:13:03;;;;;;;21.80;12.30;;;-2.00;69.70;;;;;;5043603;28;46516;-65
2021/12/22 09:15:29;;;;;;;30.10;14.67;;;-2.00;71.30;;;;;;5043857;28;46211;-66
2021/12/22 09:17:55;;;;;;;28.23;14.63;;;-1.80;70.00;;;;;;5040288;28;46412;-66
2021/12/22 09:20:20;;;;;;;25.47;14.93;;;-1.70;69.40;;;;;;5040291;28;46460;-66
2021/12/22 09:22:46;;;;;;;26.67;15.57;;;-1.60;68.80;;;;;;5040780;28;46421;-66
2021/12/22 09:25:12;;;;;;;24.63;13.97;;;-1.50;69.30;;;;;;5041734;28;46542;-66
2021/12/22 09:27:38;;;;;;;24.73;13.33;;;-1.50;68.80;;;;;;5041526;28;46423;-67
2021/12/22 09:30:06;;;;;;;22.40;13.43;;;-1.50;69.00;;;;;;5041062;28;46721;-68
2021/12/22 09:32:32;;;;;;;28.92;14.80;;;-1.60;69.10;;;;;;5040129;28;46465;-67
2021/12/22 09:34:58;;;;;;;24.27;14.37;;;-1.40;69.40;;;;;;5041503;28;46539;-66
2021/12/22 09:37:23;;;;;;;26.20;14.53;;;-1.40;69.10;;;;;;5042235;28;47098;-67
2021/12/22 09:39:49;;;;;;;25.60;14.17;;;-1.40;69.40;;;;;;5041644;28;46373;-66
2021/12/22 09:42:16;;;;;;;42.78;15.70;;;-1.40;69.30;;;;;;5041259;28;46389;-67
2021/12/22 09:44:46;;;;;;;22.27;13.52;;;-1.30;69.20;;;;;;5041728;28;46286;-67
2021/12/22 09:47:24;;;;;;;24.13;14.05;;;-1.10;69.10;;;;;;5042470;28;46417;-67
2021/12/22 09:50:06;;;;;;;23.10;13.80;;;-0.90;68.60;;;;;;5042035;28;46411;-67
2021/12/22 09:52:37;;;;;;;24.27;12.70;;;-0.70;68.70;;;;;;5042260;28;46454;-67
2021/12/22 09:55:05;;;;;;;27.10;13.35;;;-0.70;68.50;;;;;;5042306;28;46367;-67
2021/12/22 09:57:34;;;;;;;23.58;13.15;;;-0.80;68.70;;;;;;5041061;28;46404;-67
2021/12/22 10:00:00;;;;;;;20.90;13.48;;;-0.70;68.80;;;;;;5041414;28;46585;-67
2021/12/22 10:02:29;;;;;;;24.70;13.48;;;-0.50;68.90;;;;;;5040492;28;45838;-66
2021/12/22 10:04:59;;;;;;;26.23;13.85;;;-0.60;68.80;;;;;;5039863;28;46491;-66
2021/12/22 10:07:29;;;;;;;23.17;13.38;;;-0.60;68.80;;;;;;5039686;28;46418;-68
2021/12/22 10:10:02;;;;;;;24.60;15.00;;;-0.60;68.80;;;;;;5040311;28;46343;-67
2021/12/22 10:12:28;;;;;;;23.85;15.95;;;-0.50;68.80;;;;;;5039543;28;46413;-67
2021/12/22 10:14:57;;;;;;;22.00;13.47;;;-0.40;68.20;;;;;;5041784;28;46424;-65
2021/12/22 10:17:33;;;;;;;27.90;14.25;;;-0.40;68.50;;;;;;5040621;28;46246;-67
2021/12/22 10:20:00;;;;;;;25.52;13.85;;;-0.40;69.10;;;;;;5055741;28;46461;-67
2021/12/22 10:22:35;;;;;;;20.83;10.98;;;-0.50;68.90;;;;;;5039191;28;45870;-67
2021/12/22 10:25:11;;;;;;;20.08;12.20;;;-0.50;68.80;;;;;;5040807;28;46373;-66
2021/12/22 10:27:38;;;;;;;22.20;11.98;;;-0.60;68.80;;;;;;5039871;28;46474;-66
2021/12/22 10:30:24;;;;;;;25.08;13.98;;;-0.50;68.90;;;;;;5053495;28;46479;-67
2021/12/22 10:33:22;;;;;;;19.48;12.45;;;-0.50;68.80;;;;;;5040733;28;45830;-67
2021/12/22 10:35:56;;;;;;;22.23;12.27;;;-0.60;68.80;;;;;;5040382;28;46403;-66
2021/12/22 10:38:27;;;;;;;22.70;12.05;;;-0.50;68.90;;;;;;5041067;28;47104;-66
2021/12/22 10:41:01;;;;;;;24.38;13.85;;;-0.40;68.50;;;;;;5040946;28;46557;-67
2021/12/22 10:43:29;;;;;;;25.13;13.05;;;-0.20;68.00;;;;;;5040698;28;45801;-67
2021/12/22 10:46:00;;;;;;;29.35;12.52;;;-0.10;67.30;;;;;;5040711;28;46339;-67
2021/12/22 10:51:26;;;;;;;20.65;12.73;;;0.00;67.00;;;;;;5040505;28;45878;-67
2021/12/22 10:53:53;;;;;;;22.77;13.40;;;0.10;67.00;;;;;;5041157;28;46479;-67
2021/12/22 10:56:37;;;;;;;25.45;14.90;;;0.20;66.80;;;;;;5041481;28;46531;-67
2021/12/22 10:59:09;;;;;;;26.52;13.35;;;0.20;66.80;;;;;;5040650;28;47032;-68
2021/12/22 11:01:59;;;;;;;32.78;15.55;;;0.10;66.80;;;;;;5040213;28;45952;-65
2021/12/22 11:04:29;;;;;;;23.02;11.10;;;0.20;66.80;;;;;;5040988;28;46622;-67
2021/12/22 11:07:07;;;;;;;18.40;11.90;;;0.00;66.60;;;;;;5040851;28;46443;-67
2021/12/22 11:09:36;;;;;;;22.00;12.57;;;0.10;66.90;;;;;;5056513;28;47375;-67
2021/12/22 11:12:03;;;;;;;25.38;12.93;;;0.10;66.60;;;;;;5038713;28;46567;-67
2021/12/22 11:14:35;;;;;;;20.95;12.85;;;0.20;67.10;;;;;;5040145;28;46674;-67
2021/12/22 11:17:18;;;;;;;23.55;13.82;;;0.20;66.90;;;;;;5040445;28;46441;-67
2021/12/22 11:19:52;;;;;;;20.92;13.07;;;0.20;66.70;;;;;;5040631;28;46413;-67
2021/12/22 11:22:24;;;;;;;23.70;13.25;;;0.10;66.60;;;;;;5040218;28;46496;-67
2021/12/22 11:24:51;;;;;;;21.60;11.65;;;-0.10;66.60;;;;;;5040186;28;47781;-68
2021/12/22 11:27:24;;;;;;;22.08;12.75;;;-0.20;66.60;;;;;;5040472;28;46447;-67
2021/12/22 11:29:54;;;;;;;23.48;12.95;;;-0.20;66.90;;;;;;5041220;28;46428;-67
2021/12/22 11:32:22;;;;;;;19.50;11.63;;;-0.30;67.00;;;;;;5038883;28;46483;-67
2021/12/22 11:34:51;;;;;;;27.30;13.50;;;-0.20;67.00;;;;;;5039874;28;46415;-67
2021/12/22 11:37:18;;;;;;;19.33;12.45;;;-0.20;67.20;;;;;;5039549;28;46402;-67
2021/12/22 11:39:48;;;;;;;24.65;13.18;;;-0.30;66.70;;;;;;5039927;28;46481;-67
2021/12/22 11:42:14;;;;;;;20.92;12.57;;;-0.40;66.70;;;;;;5040956;28;46298;-67
2021/12/22 11:44:44;;;;;;;21.00;12.60;;;-0.30;67.00;;;;;;5043943;28;46489;-68
2021/12/22 11:47:12;;;;;;;19.88;11.52;;;-0.20;67.10;;;;;;5044394;28;46219;-67
2021/12/22 11:49:58;;;;;;;19.83;11.82;;;0.00;66.60;;;;;;5043986;28;47046;-66
2021/12/22 11:52:30;;;;;;;20.02;11.80;;;-0.10;66.00;;;;;;5042387;28;46342;-65
2021/12/22 11:55:46;;;;;;;20.23;12.27;;;0.00;66.30;;;;;;5042052;28;46393;-67
2021/12/22 11:58:19;;;;;;;22.92;13.15;;;0.10;66.30;;;;;;5039732;28;45824;-67
2021/12/22 12:00:54;;;;;;;22.23;11.57;;;0.30;65.90;;;;;;5041367;28;47012;-67
2021/12/22 12:03:41;;;;;;;20.23;12.18;;;0.30;65.40;;;;;;5041449;28;46408;-67
2021/12/22 12:06:11;;;;;;;22.08;13.25;;;0.20;65.60;;;;;;5041992;28;46428;-67
2021/12/22 12:08:56;;;;;;;21.60;12.25;;;0.20;65.80;;;;;;5041547;28;46651;-67
2021/12/22 12:11:37;;;;;;;24.00;13.73;;;0.30;65.60;;;;;;5042737;28;47325;-67
2021/12/22 12:14:09;;;;;;;19.98;11.93;;;0.40;65.40;;;;;;5043205;28;46383;-67
2021/12/22 12:22:42;;;;;;;27.63;14.07;;;0.50;64.70;;;;;;5037394;28;46420;-67
2021/12/22 12:25:12;;;;;;;24.50;13.95;;;0.60;65.00;;;;;;5056348;28;46640;-67
2021/12/22 12:27:55;;;;;;;20.65;13.05;;;0.60;64.90;;;;;;5057205;28;45894;-67
2021/12/22 12:30:44;;;;;;;20.55;12.45;;;0.50;65.00;;;;;;5043539;28;46326;-67
2021/12/22 12:33:21;;;;;;;23.25;12.93;;;0.50;65.20;;;;;;5041684;28;47145;-67
2021/12/22 12:35:52;;;;;;;18.85;12.55;;;0.40;65.10;;;;;;5043629;28;46614;-67
2021/12/22 12:38:20;;;;;;;20.23;13.05;;;0.20;65.20;;;;;;5042580;28;46468;-67
2021/12/22 12:40:59;;;;;;;25.50;13.88;;;0.10;65.80;;;;;;5041808;28;46472;-67
2021/12/22 12:43:51;;;;;;;19.23;12.95;;;-0.10;66.30;;;;;;5042504;28;47225;-65
2021/12/22 12:46:34;;;;;;;23.27;13.13;;;-0.10;66.40;;;;;;5040250;28;46511;-67
2021/12/22 12:49:03;;;;;;;23.85;16.10;;;0.00;66.10;;;;;;5041714;28;46485;-67
2021/12/22 12:51:41;;;;;;;24.50;15.37;;;0.10;65.70;;;;;;5040226;28;45882;-66
2021/12/22 12:54:16;;;;;;;25.50;14.63;;;0.40;65.50;;;;;;5040419;28;47231;-66
2021/12/22 12:56:45;;;;;;;20.20;12.45;;;0.50;65.40;;;;;;5042641;28;45905;-67
2021/12/22 12:59:15;;;;;;;23.48;14.05;;;0.50;64.90;;;;;;5042671;28;46328;-67
2021/12/22 13:01:47;;;;;;;21.13;12.10;;;0.50;64.90;;;;;;5041707;28;46346;-67
2021/12/22 13:04:36;;;;;;;20.73;12.70;;;0.50;64.60;;;;;;5040506;28;46838;-67
2021/12/22 13:07:12;;;;;;;26.17;14.15;;;0.50;64.90;;;;;;5040838;28;46444;-71